createdAt,value
2018-09-09T00:01:55.259Z,20.50
2018-09-09T00:04:28.562Z,20.90
2018-09-09T00:07:02.035Z,21.00
2018-09-09T00:09:41.485Z,21.20
2018-09-09T00:12:15.072Z,21.10
2018-09-09T00:14:47.966Z,21.30
2018-09-09T00:17:21.573Z,21.60
2018-09-09T00:19:56.207Z,21.50
2018-09-09T00:22:33.356Z,21.50
2018-09-09T00:25:07.273Z,22.20
2018-09-09T00:27:40.448Z,22.30
2018-09-09T00:30:15.379Z,22.40
2018-09-09T00:35:27.726Z,21.90
2018-09-09T00:38:00.897Z,21.50
2018-09-09T00:40:34.156Z,21.00
2018-09-09T00:43:07.825Z,20.70
2018-09-09T00:45:41.898Z,20.70
2018-09-09T00:48:16.706Z,20.70
2018-09-09T00:50:56.276Z,20.70
2018-09-09T00:53:34.171Z,21.00
2018-09-09T00:56:07.888Z,21.10
2018-09-09T00:58:42.316Z,21.40
2018-09-09T01:01:18.125Z,21.80
2018-09-09T01:03:52.690Z,21.70
2018-09-09T01:06:26.748Z,21.60
2018-09-09T01:09:01.742Z,21.50
2018-09-09T01:11:35.762Z,21.60
2018-09-09T01:14:09.807Z,21.70
2018-09-09T01:16:43.055Z,21.30
2018-09-09T01:19:16.707Z,21.10
2018-09-09T01:21:50.263Z,21.30
2018-09-09T01:24:23.564Z,21.50
2018-09-09T01:26:57.391Z,21.50
2018-09-09T01:29:31.153Z,21.10
2018-09-09T01:32:04.584Z,20.70
2018-09-09T01:34:38.268Z,20.50
2018-09-09T01:37:30.987Z,20.50
2018-09-09T01:40:05.661Z,20.30
2018-09-09T01:42:38.744Z,20.10
2018-09-09T01:45:12.262Z,20.10
2018-09-09T01:47:46.534Z,19.90
2018-09-09T01:50:20.584Z,19.90
2018-09-09T01:52:54.742Z,19.80
2018-09-09T01:55:30.459Z,19.70
2018-09-09T01:58:04.721Z,19.70
2018-09-09T02:00:40.095Z,19.70
2018-09-09T02:03:13.879Z,19.70
2018-09-09T02:05:49.051Z,19.60
2018-09-09T02:08:23.479Z,19.60
2018-09-09T02:11:01.317Z,19.60
2018-09-09T02:13:35.431Z,19.50
2018-09-09T02:16:09.081Z,19.50
2018-09-09T02:18:42.827Z,19.40
2018-09-09T02:21:17.212Z,19.40
2018-09-09T02:23:52.940Z,19.40
2018-09-09T02:26:26.779Z,19.30
2018-09-09T02:29:01.761Z,19.30
2018-09-09T02:31:35.006Z,19.20
2018-09-09T02:34:09.467Z,19.10
2018-09-09T02:36:43.009Z,19.00
2018-09-09T02:39:16.411Z,19.00
2018-09-09T02:41:50.696Z,18.90
2018-09-09T02:44:24.138Z,18.80
2018-09-09T02:46:58.050Z,18.80
2018-09-09T02:49:34.357Z,18.70
2018-09-09T02:52:07.832Z,18.60
2018-09-09T02:54:45.752Z,18.50
2018-09-09T02:57:19.208Z,18.50
2018-09-09T02:59:53.477Z,18.50
2018-09-09T03:02:27.374Z,18.40
2018-09-09T03:05:01.604Z,18.40
2018-09-09T03:07:36.626Z,18.30
2018-09-09T03:10:13.269Z,18.30
2018-09-09T03:12:46.826Z,18.30
2018-09-09T03:15:20.108Z,18.30
2018-09-09T03:17:53.250Z,18.20
2018-09-09T03:20:26.546Z,18.20
2018-09-09T03:22:59.812Z,18.20
2018-09-09T03:25:32.900Z,18.20
2018-09-09T03:28:06.143Z,18.20
2018-09-09T03:30:39.408Z,18.20
2018-09-09T03:33:13.791Z,18.20
2018-09-09T03:35:47.239Z,18.10
2018-09-09T03:38:20.829Z,18.00
2018-09-09T03:40:54.817Z,18.00
2018-09-09T03:43:31.307Z,17.80
2018-09-09T03:46:04.979Z,17.80
2018-09-09T03:48:39.085Z,17.70
2018-09-09T03:51:12.473Z,17.60
2018-09-09T03:53:47.320Z,17.60
2018-09-09T03:56:21.212Z,17.50
2018-09-09T03:58:54.747Z,17.50
2018-09-09T04:01:28.879Z,17.40
2018-09-09T04:04:06.488Z,17.40
2018-09-09T04:06:41.216Z,17.30
2018-09-09T04:09:16.619Z,17.30
2018-09-09T04:11:54.435Z,17.30
2018-09-09T04:17:19.806Z,17.20
2018-09-09T04:19:57.133Z,17.20
2018-09-09T04:22:32.004Z,17.20
2018-09-09T04:25:07.852Z,17.10
2018-09-09T04:27:42.015Z,17.00
2018-09-09T04:30:16.688Z,17.00
2018-09-09T04:32:55.091Z,17.00
2018-09-09T04:35:29.900Z,17.00
2018-09-09T04:38:04.213Z,17.00
2018-09-09T04:43:18.844Z,16.90
2018-09-09T04:45:52.019Z,16.90
2018-09-09T04:48:27.228Z,16.90
2018-09-09T04:51:01.218Z,16.80
2018-09-09T04:53:34.502Z,16.80
2018-09-09T04:56:08.358Z,16.70
2018-09-09T04:58:41.584Z,16.70
2018-09-09T05:01:20.592Z,16.60
2018-09-09T05:04:00.517Z,16.60
2018-09-09T05:06:36.071Z,16.60
2018-09-09T05:09:11.535Z,16.50
2018-09-09T05:11:46.847Z,16.60
2018-09-09T05:14:22.993Z,16.70
2018-09-09T05:17:06.813Z,16.60
2018-09-09T05:19:43.818Z,16.60
2018-09-09T05:22:19.681Z,16.60
2018-09-09T05:25:09.233Z,16.60
2018-09-09T05:27:43.499Z,16.60
2018-09-09T05:30:18.379Z,16.50
2018-09-09T05:32:57.954Z,16.40
2018-09-09T05:35:34.936Z,16.40
2018-09-09T05:38:13.860Z,16.40
2018-09-09T05:41:08.944Z,16.40
2018-09-09T05:43:45.982Z,16.40
2018-09-09T05:46:21.738Z,16.40
2018-09-09T05:48:55.871Z,16.40
2018-09-09T05:51:31.678Z,16.40
2018-09-09T05:54:06.606Z,16.40
2018-09-09T05:56:46.909Z,16.30
2018-09-09T05:59:23.993Z,16.40
2018-09-09T06:02:01.149Z,16.40
2018-09-09T06:04:35.580Z,16.40
2018-09-09T06:07:11.725Z,16.40
2018-09-09T06:09:48.975Z,16.40
2018-09-09T06:12:23.656Z,16.40
2018-09-09T06:14:57.663Z,16.40
2018-09-09T06:17:31.499Z,16.40
2018-09-09T06:20:26.202Z,16.40
2018-09-09T06:23:02.227Z,16.30
2018-09-09T06:25:36.049Z,16.40
2018-09-09T06:28:10.840Z,16.30
2018-09-09T06:30:50.005Z,16.30
2018-09-09T06:33:26.172Z,16.30
2018-09-09T06:36:00.462Z,16.30
2018-09-09T06:38:34.379Z,16.20
2018-09-09T06:41:09.087Z,16.20
2018-09-09T06:43:43.484Z,16.10
2018-09-09T06:46:17.687Z,16.10
2018-09-09T06:48:55.673Z,16.10
2018-09-09T06:51:30.124Z,16.00
2018-09-09T06:54:06.030Z,16.00
2018-09-09T06:56:43.761Z,15.90
2018-09-09T06:59:19.783Z,15.80
2018-09-09T07:01:59.137Z,15.80
2018-09-09T07:04:33.494Z,15.70
2018-09-09T07:07:08.781Z,15.70
2018-09-09T07:09:43.287Z,15.70
2018-09-09T07:12:17.677Z,15.70
2018-09-09T07:14:51.938Z,15.60
2018-09-09T07:17:25.932Z,15.60
2018-09-09T07:20:01.116Z,15.50
2018-09-09T07:22:38.870Z,15.50
2018-09-09T07:25:16.606Z,15.40
2018-09-09T07:27:52.028Z,15.40
2018-09-09T07:30:34.498Z,15.40
2018-09-09T07:33:10.208Z,15.40
2018-09-09T07:35:46.149Z,15.40
2018-09-09T07:38:22.367Z,15.40
2018-09-09T07:40:59.882Z,15.30
2018-09-09T07:43:39.733Z,15.40
2018-09-09T15:33:56.716Z,16.30
2018-09-09T15:36:44.822Z,16.40
2018-09-09T15:39:17.713Z,16.70
2018-09-09T15:45:30.149Z,16.90
2018-09-09T15:48:05.711Z,16.90
2018-09-09T15:50:44.948Z,16.90
2018-09-09T15:53:18.912Z,17.00
2018-09-09T15:59:40.222Z,16.70
2018-09-09T16:02:13.621Z,16.80
2018-09-09T16:04:47.549Z,16.60
2018-09-09T16:07:20.984Z,16.60
2018-09-09T16:09:54.353Z,16.50
2018-09-09T16:12:28.695Z,16.60
2018-09-09T16:15:27.369Z,16.70
2018-09-09T16:18:14.243Z,16.70
2018-09-09T16:20:50.058Z,16.70
2018-09-09T16:23:24.123Z,16.90
2018-09-09T16:26:01.218Z,17.00
2018-09-09T16:28:34.851Z,17.00
2018-09-09T16:31:13.708Z,17.10
2018-09-09T16:33:48.200Z,17.40
2018-09-09T16:36:22.864Z,17.40
2018-09-09T16:38:55.997Z,17.40
2018-09-09T16:41:31.962Z,17.60
2018-09-09T16:44:06.542Z,17.50
2018-09-09T16:46:50.131Z,17.50
2018-09-09T16:49:40.718Z,17.30
2018-09-09T16:52:22.569Z,17.30
2018-09-09T16:55:09.629Z,17.30
2018-09-09T16:57:44.283Z,17.20
2018-09-09T17:00:17.770Z,17.40
2018-09-09T17:02:51.946Z,17.40
2018-09-09T17:05:37.684Z,17.40
2018-09-09T17:08:15.421Z,17.50
2018-09-09T17:11:51.406Z,17.50
2018-09-09T17:14:33.353Z,17.70
2018-09-09T17:17:06.859Z,17.90
2018-09-09T17:20:16.281Z,17.90
2018-09-09T17:23:04.370Z,18.10
2018-09-09T17:26:10.631Z,17.80
2018-09-09T17:28:45.320Z,17.90
2018-09-09T17:34:48.107Z,18.10
2018-09-09T17:37:26.382Z,18.30
2018-09-09T17:40:02.616Z,18.60
2018-09-09T17:42:37.619Z,18.50
2018-09-09T17:45:18.196Z,18.50
2018-09-09T17:51:26.951Z,18.60
2018-09-09T17:54:19.411Z,18.90
2018-09-09T17:59:59.079Z,18.90
2018-09-09T18:02:33.324Z,18.90
2018-09-09T18:05:12.335Z,19.00
2018-09-09T18:07:52.222Z,19.20
2018-09-09T18:10:27.885Z,19.20
2018-09-09T18:18:54.778Z,19.00
2018-09-09T18:26:51.106Z,19.20
2018-09-09T18:29:24.700Z,19.40
2018-09-09T18:31:58.213Z,19.90
2018-09-09T18:34:31.764Z,19.90
2018-09-09T18:37:07.275Z,19.90
2018-09-09T18:40:23.693Z,20.20
2018-09-09T18:58:02.346Z,20.40
2018-09-09T19:00:41.569Z,20.20
2018-09-09T19:03:16.979Z,19.90
2018-09-09T19:05:50.523Z,20.20
2018-09-09T19:08:26.083Z,20.30
2018-09-09T19:11:09.072Z,20.50
2018-09-09T19:13:59.431Z,20.40
2018-09-09T19:16:33.510Z,20.10
2018-09-09T19:19:11.774Z,20.20
2018-09-09T19:21:45.690Z,20.40
2018-09-09T19:24:20.256Z,20.50
2018-09-09T19:26:54.581Z,20.50
2018-09-09T19:29:29.666Z,20.10
2018-09-09T19:32:03.752Z,20.20
2018-09-09T19:34:43.955Z,20.40
2018-09-09T19:37:29.036Z,20.50
2018-09-09T19:40:06.272Z,20.20
2018-09-09T19:42:41.772Z,20.10
2018-09-09T19:45:27.444Z,19.90
2018-09-09T19:48:03.310Z,19.90
2018-09-09T19:50:38.528Z,20.30
2018-09-09T19:53:15.359Z,20.30
2018-09-09T19:56:01.074Z,20.40
2018-09-09T19:58:37.218Z,20.40
2018-09-09T20:01:11.668Z,20.60
2018-09-09T20:03:46.656Z,20.90
2018-09-09T20:06:21.946Z,21.30
2018-09-09T20:09:01.092Z,21.60
2018-09-09T20:11:36.416Z,21.60
2018-09-09T20:14:13.337Z,21.20
2018-09-09T20:16:49.152Z,21.10
2018-09-09T20:19:27.860Z,21.20
2018-09-09T20:22:07.306Z,21.30
2018-09-09T20:24:49.141Z,21.20
2018-09-09T20:27:26.733Z,20.90
2018-09-09T20:30:05.063Z,21.00
2018-09-09T20:32:50.231Z,21.20
2018-09-09T20:35:26.783Z,21.30
2018-09-09T20:38:01.922Z,21.40
2018-09-09T20:40:38.949Z,21.80
2018-09-09T20:43:13.354Z,21.50
2018-09-09T20:45:52.355Z,21.60
2018-09-09T20:48:27.402Z,22.00
2018-09-09T20:51:01.382Z,21.90
2018-09-09T20:53:37.118Z,21.80
2018-09-09T20:56:18.328Z,21.80
2018-09-09T20:58:54.003Z,22.20
2018-09-09T21:01:32.205Z,22.00
2018-09-09T21:04:16.107Z,22.40
2018-09-09T21:06:49.716Z,22.50
2018-09-09T21:09:24.969Z,22.30
2018-09-09T21:11:59.045Z,22.30
2018-09-09T21:14:36.576Z,22.40
2018-09-09T21:17:11.551Z,22.70
2018-09-09T21:19:50.719Z,22.80
2018-09-09T21:22:33.174Z,22.50
2018-09-09T21:25:08.352Z,22.60
2018-09-09T21:27:42.492Z,22.90
2018-09-09T21:30:17.457Z,23.00
2018-09-09T21:32:52.419Z,23.50
2018-09-09T21:35:25.898Z,24.00
2018-09-09T21:38:04.717Z,23.70
2018-09-09T21:40:46.245Z,23.60
2018-09-09T21:43:26.008Z,23.90
2018-09-09T21:46:02.401Z,24.10
2018-09-09T21:48:36.795Z,24.20
2018-09-09T21:51:12.323Z,23.90
2018-09-09T21:53:48.220Z,23.70
2018-09-09T21:56:23.569Z,23.90
2018-09-09T21:58:58.223Z,23.90
2018-09-09T22:04:28.698Z,24.20
2018-09-09T22:07:06.862Z,24.60
2018-09-09T22:09:40.022Z,24.90
2018-09-09T22:12:16.339Z,24.90
2018-09-09T22:14:51.990Z,24.70
2018-09-09T22:17:29.338Z,24.50
2018-09-09T22:20:04.348Z,23.90
2018-09-09T22:22:41.731Z,23.40
2018-09-09T22:25:17.481Z,23.60
2018-09-09T22:27:58.522Z,23.60
2018-09-09T22:30:37.901Z,23.80
2018-09-09T22:33:16.746Z,23.90
2018-09-09T22:35:59.978Z,23.90
2018-09-09T22:38:36.944Z,23.60
2018-09-09T22:41:13.231Z,23.60
2018-09-09T22:44:01.258Z,23.00
2018-09-09T22:46:42.308Z,23.30
2018-09-09T22:49:18.357Z,23.50
2018-09-09T22:51:51.902Z,23.70
2018-09-09T22:54:27.172Z,23.80
2018-09-09T22:57:01.740Z,23.30
2018-09-09T22:59:40.415Z,22.90
2018-09-09T23:02:20.665Z,23.20
2018-09-09T23:04:57.479Z,23.60
2018-09-09T23:07:34.865Z,23.50
2018-09-09T23:10:17.858Z,23.20
2018-09-09T23:12:53.139Z,22.90
2018-09-09T23:18:12.760Z,23.00
2018-09-09T23:20:47.385Z,23.00
2018-09-09T23:23:21.494Z,22.80
2018-09-09T23:25:55.946Z,22.80
2018-09-09T23:28:29.821Z,22.40
2018-09-09T23:31:11.529Z,22.40
2018-09-09T23:33:48.700Z,22.30
2018-09-09T23:36:24.123Z,22.40
2018-09-09T23:39:03.315Z,22.40
2018-09-09T23:41:37.758Z,22.30
2018-09-09T23:44:12.862Z,22.10
2018-09-09T23:46:52.745Z,22.10
2018-09-09T23:49:26.440Z,22.00
2018-09-09T23:52:03.192Z,22.00
2018-09-09T23:54:38.892Z,22.00
2018-09-09T23:57:17.050Z,21.80
2018-09-09T23:59:52.813Z,22.00
